ADDS METAR Data INFO
IDs: Format: Raw Decoded Include TAF

Data at: 2034 UTC 22 Feb 2018

KGAO 222015Z AUTO 13005KT OVC024 26/20 A3026 RMK AO2 T02640198 PWINO
KGAO 221955Z AUTO 12005KT 10SM OVC024 27/20 A3026 RMK AO2 T02650200
KGAO 221935Z AUTO 13010KT 10SM BKN026 BKN030 28/20 A3027 RMK AO2 T02770197
KGAO 221915Z AUTO 16012G17KT 10SM SCT026 BKN032 28/19 A3028 RMK AO2 T02780193
KGAO 221855Z AUTO 15010G16KT 120V180 10SM BKN028 28/19 A3029 RMK AO2 T02780193
KGAO 221835Z AUTO 15012G19KT 120V180 10SM SCT028 28/19 A3029 RMK AO2 T02750190 PWINO
KGAO 221815Z AUTO 16011G20KT 10SM SCT028 27/19 A3030 RMK AO2 T02730185 PWINO
KGAO 221755Z AUTO 15011G19KT 10SM SCT028 27/19 A3031 RMK AO2 T02740187 10275 20225
KGAO 221735Z AUTO 16013G17KT SCT023 27/19 A3031 RMK AO2 T02720189 PWINO
KGAO 221715Z AUTO 16011G15KT BKN023 OVC033 27/20 A3031 RMK AO2 T02690200 PWINO
KGAO 221655Z AUTO 15006G16KT 10SM BKN021 BKN031 27/20 A3031 RMK AO2 T02680200
KGAO 221635Z AUTO 14009G14KT 110V170 10SM BKN021 BKN031 27/20 A3031 RMK AO2 T02660202
KGAO 221615Z AUTO 13009G17KT 10SM BKN021 BKN027 BKN033 26/20 A3031 RMK AO2 T02630200
KGAO 221555Z AUTO 16010G17KT 10SM SCT018 BKN023 OVC033 26/20 A3031 RMK AO2 T02620201
KGAO 221535Z AUTO 14008G16KT 10SM SCT018 BKN028 BKN035 26/20 A3031 RMK AO2 T02590203
KGAO 221515Z AUTO 15012G20KT 10SM SCT016 26/20 A3031 RMK AO2 T02550203
KGAO 221455Z AUTO 15010G15KT 10SM SCT016 25/21 A3030 RMK AO2 LTG DSNT N T02540206
KGAO 221435Z AUTO 14008G15KT 10SM CLR 25/21 A3030 RMK AO2 T02500208
KGAO 221415Z AUTO 14008KT 10SM CLR 25/21 A3029 RMK AO2 T02450207
KGAO 221355Z AUTO 14006KT 10SM CLR 24/21 A3029 RMK AO2 T02390210
KGAO 221335Z AUTO 14003KT 7SM CLR 23/21 A3028 RMK AO2 LTG DSNT W AND NW T02310210
KGAO 221315Z AUTO 13003KT 7SM CLR 23/21 A3028 RMK AO2 T02260207
KGAO 221255Z AUTO 13004KT 7SM CLR 23/21 A3027 RMK AO2 T02250206
KGAO 221235Z AUTO 13004KT 7SM CLR 23/21 A3026 RMK AO2 T02250206
KGAO 221215Z AUTO 13003KT 7SM SCT015 SCT022 SCT027 23/21 A3026 RMK AO2 T02260207
KGAO 221155Z AUTO 12003KT 7SM SCT015 OVC026 23/21 A3025 RMK AO2 T02250206 10236 20225
KGAO 221135Z AUTO 12003KT 7SM SCT017 BKN026 23/21 A3025 RMK AO2 T02270206
KGAO 221115Z AUTO 13003KT 7SM SCT024 23/21 A3024 RMK AO2 T02260207
KGAO 221055Z AUTO 14004KT 7SM SCT020 23/21 A3024 RMK AO2 T02260206
KGAO 221035Z AUTO 14003KT 7SM SCT018 BKN022 23/21 A3024 RMK AO2 T02260207
KGAO 221015Z AUTO 15004KT 7SM CLR 23/21 A3024 RMK AO2 T02280208
KGAO 220955Z AUTO 14005KT 7SM CLR 23/21 A3024 RMK AO2 T02300209
KGAO 220935Z AUTO 14004KT 7SM CLR 23/21 A3024 RMK AO2 T02300210
KGAO 220915Z AUTO 14005KT 7SM SCT022 23/21 A3023 RMK AO2 LTG DSNT NW T02320210
KGAO 220855Z AUTO 14005KT 7SM BKN019 23/21 A3023 RMK AO2 T02320210
KGAO 220835Z AUTO 15005KT 7SM BKN021 23/21 A3024 RMK AO2 T02320210
KGAO 220815Z AUTO 15005KT 7SM SCT021 23/21 A3024 RMK AO2 T02330210
KGAO 220755Z AUTO 14005KT 7SM CLR 23/21 A3024 RMK AO2 T02330210
KGAO 220735Z AUTO 15004KT 7SM CLR 23/21 A3024 RMK AO2 T02340210
KGAO 220715Z AUTO 15006KT 7SM SCT020 24/21 A3025 RMK AO2 T02350211
KGAO 220655Z AUTO 14005KT 7SM BKN018 24/21 A3025 RMK AO2 T02350211
KGAO 220635Z AUTO 14005KT 7SM SCT016 BKN021 24/21 A3025 RMK AO2 T02350212
KGAO 220615Z AUTO 15007KT 7SM SCT021 24/21 A3025 RMK AO2 T02350213
KGAO 220555Z AUTO 15005KT 7SM SCT012 BKN023 24/21 A3025 RMK AO2 T02360213 10250 20236 402780228
KGAO 220535Z AUTO 15005KT 7SM SCT010 OVC023 24/22 A3025 RMK AO2 T02360215
KGAO 220515Z AUTO 15006KT 7SM SCT010 BKN023 24/22 A3025 RMK AO2 T02370215
KGAO 220455Z AUTO 15006KT 7SM SCT010 SCT014 OVC023 24/22 A3025 RMK AO2 T02380215
KGAO 220435Z AUTO 15006KT 7SM SCT012 OVC023 24/22 A3025 RMK AO2 T02380215
KGAO 220415Z AUTO 15006KT 7SM SCT012 OVC023 24/22 A3025 RMK AO2 T02390215
KGAO 220355Z AUTO 16005KT 7SM SCT012 BKN021 24/22 A3025 RMK AO2 T02400215
KGAO 220035Z AUTO 15007KT 10SM SCT016 BKN025 25/21 A3020 RMK AO2 T02450211
KGAO 220015Z AUTO 15008G16KT 10SM SCT018 BKN027 25/21 A3020 RMK AO2 T02460210
KGAO 212355Z AUTO 16008G14KT 10SM BKN018 BKN022 BKN029 25/21 A3020 RMK AO2 T02500210 10278 20250
KGAO 212335Z AUTO 16008G18KT 10SM OVC018 25/21 A3019 RMK AO2 T02520210
KGAO 212315Z AUTO 16010G17KT 10SM OVC018 26/21 A3019 RMK AO2 T02550210
KGAO 212255Z AUTO 16011G18KT 10SM BKN018 BKN030 BKN038 26/21 A3018 RMK AO2 T02560211
KGAO 212235Z AUTO 15013G19KT 10SM SCT018 BKN022 OVC030 26/21 A3018 RMK AO2 T02580210
KGAO 212215Z AUTO 16011G16KT 10SM BKN018 BKN031 OVC044 26/21 A3018 RMK AO2 LTG DSNT W T02590210
KGAO 212155Z AUTO 15011G19KT 10SM BKN018 BKN030 OVC040 26/21 A3018 RMK AO2 T02580210
KGAO 212135Z AUTO 16012G18KT 10SM SCT018 BKN029 OVC035 26/21 A3017 RMK AO2 T02600210
KGAO 212115Z AUTO 15013G20KT 10SM BKN018 BKN026 OVC039 26/21 A3017 RMK AO2 T02630210
KGAO 212055Z AUTO 15011G22KT 10SM BKN018 BKN026 BKN035 27/21 A3017 RMK AO2 T02660208
KGAO 212035Z AUTO 16009G18KT 10SM OVC018 28/21 A3017 RMK AO2 T02760214
KGAO 212015Z AUTO 15015G21KT 10SM OVC018 27/21 A3018 RMK AO2 T02720210
KGAO 211955Z AUTO 16013G24KT 130V190 10SM BKN018 OVC034 27/21 A3018 RMK AO2 T02740210
KGAO 211935Z AUTO 16015G21KT 10SM BKN018 BKN028 OVC037 27/21 A3018 RMK AO2 LTG DSNT W T02680210
KGAO 211915Z AUTO 16011G21KT 10SM BKN018 BKN028 OVC039 27/21 A3019 RMK AO2 LTG DSNT W T02690210
KGAO 211835Z AUTO 15013G19KT 10SM BKN018 BKN023 OVC033 28/21 A3021 RMK AO2 T02750212
KGAO 211815Z AUTO 16013G20KT 10SM BKN018 BKN025 OVC033 27/21 A3022 RMK AO2 T02740213
KGAO 211755Z AUTO 16013G20KT 10SM BKN018 BKN025 BKN033 27/21 A3023 RMK AO2 T02690210 10274 20230
KGAO 211735Z AUTO 15013G17KT 10SM BKN018 BKN026 OVC060 27/21 A3024 RMK AO2 T02690210
KGAO 211715Z AUTO 16012G19KT 10SM BKN018 BKN026 OVC033 26/21 A3024 RMK AO2 T02630209
KGAO 211655Z AUTO 15010G19KT 10SM OVC018 27/21 A3025 RMK AO2 T02700214
KGAO 211635Z AUTO 15013G19KT 10SM OVC018 27/21 A3024 RMK AO2 T02660213
KGAO 211615Z AUTO 15010G19KT 10SM OVC018 26/21 A3024 RMK AO2 T02610211
KGAO 211555Z AUTO 15012G18KT 10SM OVC014 26/21 A3024 RMK AO2 T02600212
KGAO 211535Z AUTO 14014G19KT 10SM OVC014 26/21 A3023 RMK AO2 T02600214
KGAO 211515Z AUTO 14006KT 10SM OVC014 26/22 A3023 RMK AO2 T02570216
KGAO 211455Z AUTO 13008KT 10SM BKN016 OVC022 25/21 A3023 RMK AO2 T02470213
KGAO 211435Z AUTO 13005KT 10SM BKN018 OVC023 24/21 A3023 RMK AO2 LTG DSNT W T02410211
KGAO 211415Z AUTO 14005KT 10SM BKN018 OVC023 24/21 A3022 RMK AO2 T02420212
KGAO 211355Z AUTO 12004KT 10SM BKN021 24/21 A3021 RMK AO2 T02420214
KGAO 211335Z AUTO 13004KT 7SM BKN019 OVC024 24/21 A3021 RMK AO2 T02370212
KGAO 211315Z AUTO 13004KT 7SM BKN017 BKN022 23/21 A3021 RMK AO2 T02330210
KGAO 211255Z AUTO 13005KT 7SM SCT019 SCT025 23/21 A3020 RMK AO2 T02300210